createdAt,value
2023-02-11T00:01:35.206Z,7.80
2023-02-11T00:04:05.810Z,8.08
2023-02-11T00:06:36.609Z,7.88
2023-02-11T00:09:05.688Z,7.85
2023-02-11T00:11:33.868Z,7.80
2023-02-11T00:14:09.352Z,7.97
2023-02-11T00:16:37.570Z,7.94
2023-02-11T00:19:06.590Z,7.91
2023-02-11T00:21:35.786Z,8.04
2023-02-11T00:24:03.760Z,7.83
2023-02-11T00:26:35.212Z,7.62
2023-02-11T00:29:05.929Z,7.81
2023-02-11T00:31:35.420Z,7.80
2023-02-11T00:34:03.732Z,8.06
2023-02-11T00:36:32.100Z,7.96
2023-02-11T00:39:01.628Z,7.95
2023-02-11T00:41:30.247Z,7.93
2023-02-11T00:43:58.601Z,7.92
2023-02-11T00:46:28.234Z,8.19
2023-02-11T00:48:57.894Z,7.88
2023-02-11T00:51:26.407Z,7.80
2023-02-11T00:53:55.305Z,8.22
2023-02-11T00:56:23.303Z,8.22
2023-02-11T00:58:53.411Z,8.31
2023-02-11T01:01:21.817Z,7.93
2023-02-11T01:03:53.719Z,7.97
2023-02-11T01:06:21.924Z,7.68
2023-02-11T01:08:49.863Z,8.14
2023-02-11T01:11:21.375Z,8.15
2023-02-11T01:13:51.339Z,8.14
2023-02-11T01:16:21.390Z,7.97
2023-02-11T01:18:50.708Z,7.99
2023-02-11T01:21:18.661Z,8.16
2023-02-11T01:23:46.632Z,7.97
2023-02-11T01:26:14.928Z,8.27
2023-02-11T01:28:42.922Z,7.91
2023-02-11T01:31:10.956Z,7.73
2023-02-11T01:33:39.054Z,7.86
2023-02-11T01:36:10.016Z,7.82
2023-02-11T01:38:40.010Z,7.83
2023-02-11T01:41:11.281Z,7.91
2023-02-11T01:43:43.821Z,8.00
2023-02-11T01:46:35.197Z,8.01
2023-02-11T01:49:11.054Z,7.88
2023-02-11T01:51:48.205Z,8.22
2023-02-11T01:54:40.453Z,8.18
2023-02-11T01:57:25.124Z,8.00
2023-02-11T02:00:07.152Z,8.05
2023-02-11T02:02:45.429Z,7.97
2023-02-11T02:05:25.566Z,7.98
2023-02-11T02:08:07.727Z,7.91
2023-02-11T02:10:39.385Z,7.91
2023-02-11T02:13:07.484Z,8.09
2023-02-11T02:15:42.377Z,8.07
2023-02-11T02:18:42.751Z,7.87
2023-02-11T02:22:06.913Z,7.93
2023-02-11T02:25:19.724Z,8.03
2023-02-11T02:27:57.556Z,7.88
2023-02-11T02:30:59.226Z,7.92
2023-02-11T02:33:46.670Z,8.04
2023-02-11T02:36:24.266Z,7.90
2023-02-11T02:38:59.771Z,7.93
2023-02-11T02:41:33.611Z,7.78
2023-02-11T02:44:02.186Z,7.83
2023-02-11T02:46:34.006Z,8.09
2023-02-11T02:49:04.447Z,8.11
2023-02-11T02:52:03.152Z,8.06
2023-02-11T02:54:54.335Z,7.95
2023-02-11T02:57:33.886Z,8.06
2023-02-11T03:00:18.900Z,8.02
2023-02-11T03:03:06.610Z,8.05
2023-02-11T03:05:53.684Z,7.86
2023-02-11T03:08:33.247Z,7.90
2023-02-11T03:11:04.270Z,7.96
2023-02-11T03:13:37.122Z,8.05
2023-02-11T03:16:13.374Z,8.15
2023-02-11T03:18:48.855Z,8.45
2023-02-11T03:21:21.301Z,7.96
2023-02-11T03:23:55.210Z,8.04
2023-02-11T03:26:31.713Z,7.77
2023-02-11T03:29:11.022Z,8.07
2023-02-11T03:31:54.071Z,7.95
2023-02-11T03:34:32.105Z,7.94
2023-02-11T03:37:09.054Z,8.07
2023-02-11T03:39:41.812Z,7.85
2023-02-11T03:42:14.500Z,8.13
2023-02-11T03:44:52.576Z,8.09
2023-02-11T03:47:27.402Z,8.18
2023-02-11T03:49:59.223Z,8.23
2023-02-11T03:52:29.998Z,8.01
2023-02-11T03:55:03.904Z,8.26
2023-02-11T03:57:34.291Z,8.56
2023-02-11T04:00:02.709Z,8.24
2023-02-11T04:02:34.781Z,8.22
2023-02-11T04:05:02.701Z,8.27
2023-02-11T04:07:32.126Z,8.41
2023-02-11T04:10:00.833Z,8.30
2023-02-11T04:12:28.836Z,8.36
2023-02-11T04:14:58.819Z,8.62
2023-02-11T04:17:26.928Z,8.57
2023-02-11T04:19:54.895Z,8.50
2023-02-11T04:22:22.780Z,8.68
2023-02-11T04:24:52.178Z,8.33
2023-02-11T04:27:20.116Z,8.51
2023-02-11T04:29:48.282Z,8.31
2023-02-11T04:32:16.936Z,8.45
2023-02-11T04:34:45.130Z,8.56
2023-02-11T04:37:13.197Z,8.26
2023-02-11T04:39:41.210Z,8.33
2023-02-11T04:42:10.596Z,8.38
2023-02-11T04:44:38.662Z,8.46
2023-02-11T04:47:06.826Z,8.34
2023-02-11T04:49:34.776Z,8.30
2023-02-11T04:52:02.694Z,8.61
2023-02-11T04:54:30.566Z,8.37
2023-02-11T04:56:58.578Z,8.79
2023-02-11T04:59:28.035Z,8.60
2023-02-11T05:01:56.204Z,8.52
2023-02-11T05:04:24.204Z,8.84
2023-02-11T05:06:52.422Z,8.61
2023-02-11T05:09:20.520Z,8.66
2023-02-11T05:11:48.656Z,8.66
2023-02-11T05:14:16.542Z,8.52
2023-02-11T05:16:45.988Z,8.69
2023-02-11T05:19:14.034Z,8.56
2023-02-11T05:21:53.194Z,8.44
2023-02-11T05:24:28.589Z,8.31
2023-02-11T05:26:56.495Z,8.28
2023-02-11T05:29:24.434Z,8.42
2023-02-11T05:31:53.875Z,8.11
2023-02-11T05:34:22.008Z,8.52
2023-02-11T05:36:49.955Z,8.14
2023-02-11T05:39:17.785Z,8.10
2023-02-11T05:41:45.744Z,8.57
2023-02-11T05:44:13.753Z,8.39
2023-02-11T05:46:41.886Z,8.26
2023-02-11T05:49:11.360Z,8.36
2023-02-11T05:51:39.573Z,8.19
2023-02-11T05:54:07.692Z,8.17
2023-02-11T05:56:35.744Z,8.03
2023-02-11T05:59:03.791Z,8.04
2023-02-11T06:01:31.833Z,8.22
2023-02-11T06:03:59.788Z,8.18
2023-02-11T06:06:29.145Z,8.15
2023-02-11T06:08:57.368Z,8.00
2023-02-11T06:11:25.264Z,8.43
2023-02-11T06:13:53.303Z,8.30
2023-02-11T06:16:21.334Z,8.27
2023-02-11T06:18:49.501Z,8.45
2023-02-11T06:21:19.381Z,8.54
2023-02-11T06:23:49.169Z,8.31
2023-02-11T06:26:20.956Z,8.39
2023-02-11T06:28:49.609Z,8.36
2023-02-11T06:31:18.481Z,8.31
2023-02-11T06:33:46.448Z,8.36
2023-02-11T06:36:17.849Z,8.23
2023-02-11T06:38:46.478Z,8.49
2023-02-11T06:41:20.321Z,8.47
2023-02-11T06:43:49.019Z,8.32
2023-02-11T06:46:17.587Z,8.48
2023-02-11T06:48:45.665Z,8.61
2023-02-11T06:51:15.471Z,8.68
2023-02-11T06:53:46.295Z,8.22
2023-02-11T06:56:18.656Z,8.50
2023-02-11T06:58:48.360Z,8.33
2023-02-11T07:01:18.154Z,8.15
2023-02-11T07:03:47.237Z,8.34
2023-02-11T07:06:19.401Z,8.50
2023-02-11T07:08:47.673Z,8.50
2023-02-11T07:11:21.171Z,8.24
2023-02-11T07:13:49.342Z,8.22
2023-02-11T07:16:20.331Z,8.26
2023-02-11T07:18:49.806Z,8.01
2023-02-11T07:21:21.927Z,8.16
2023-02-11T07:23:50.326Z,8.20
2023-02-11T07:26:23.127Z,8.23
2023-02-11T07:28:51.681Z,8.13
2023-02-11T07:31:24.904Z,8.42
2023-02-11T07:33:55.366Z,8.08
2023-02-11T07:36:24.673Z,8.58
2023-02-11T07:38:54.780Z,8.52
2023-02-11T07:41:26.217Z,8.37
2023-02-11T07:43:54.912Z,8.71
2023-02-11T07:46:25.393Z,8.52
2023-02-11T07:48:55.027Z,8.61
2023-02-11T07:51:26.427Z,8.50
2023-02-11T07:53:55.407Z,8.30
2023-02-11T07:56:25.425Z,8.44
2023-02-11T07:58:53.547Z,8.62
2023-02-11T08:01:28.354Z,8.50
2023-02-11T08:03:58.110Z,8.62
2023-02-11T08:06:29.192Z,8.41
2023-02-11T08:08:57.262Z,8.89
2023-02-11T08:11:29.609Z,8.50
2023-02-11T08:13:58.631Z,8.56
2023-02-11T08:16:29.813Z,8.58
2023-02-11T08:19:01.115Z,8.69
2023-02-11T08:21:31.609Z,8.53
2023-02-11T08:23:59.896Z,8.69
2023-02-11T08:26:34.690Z,8.81
2023-02-11T08:29:09.341Z,8.86
2023-02-11T08:31:43.190Z,8.81
2023-02-11T08:34:14.208Z,9.04
2023-02-11T08:36:45.935Z,9.02
2023-02-11T08:39:19.966Z,8.97
2023-02-11T08:41:52.936Z,9.20
2023-02-11T08:44:22.792Z,9.25
2023-02-11T08:46:51.945Z,9.03
2023-02-11T08:49:21.146Z,8.97
2023-02-11T08:51:49.537Z,8.89
2023-02-11T08:54:18.005Z,8.98
2023-02-11T08:56:46.395Z,9.01
2023-02-11T08:59:17.757Z,9.39
2023-02-11T09:01:47.337Z,9.30
2023-02-11T09:04:15.385Z,9.12
2023-02-11T09:06:43.592Z,9.17
2023-02-11T09:09:14.021Z,9.40
2023-02-11T09:11:44.666Z,9.07
2023-02-11T09:14:22.147Z,9.49
2023-02-11T09:16:52.549Z,9.41
2023-02-11T09:19:21.581Z,9.31
2023-02-11T09:21:49.689Z,9.54
2023-02-11T09:24:18.435Z,9.66
2023-02-11T09:26:46.451Z,9.69
2023-02-11T09:29:17.057Z,9.82
2023-02-11T09:31:46.603Z,10.12
2023-02-11T09:34:15.865Z,9.88
2023-02-11T09:36:45.852Z,9.79
2023-02-11T09:39:18.256Z,10.03
2023-02-11T09:42:33.416Z,9.90
2023-02-11T09:45:03.663Z,9.70
2023-02-11T09:47:35.413Z,9.98
2023-02-11T09:50:07.924Z,10.01
2023-02-11T09:52:46.144Z,10.62
2023-02-11T09:55:24.209Z,10.29
2023-02-11T09:57:52.665Z,10.36
2023-02-11T10:00:26.228Z,10.31
2023-02-11T10:03:22.067Z,10.14
2023-02-11T10:06:14.132Z,10.25
2023-02-11T10:08:57.752Z,10.85
2023-02-11T10:11:35.426Z,10.38
2023-02-11T10:14:26.738Z,10.26
2023-02-11T10:17:07.333Z,10.79
2023-02-11T10:19:57.513Z,10.73
2023-02-11T10:22:33.867Z,11.27
2023-02-11T10:25:18.413Z,11.00
2023-02-11T10:27:47.106Z,11.35
2023-02-11T10:30:27.736Z,11.04
2023-02-11T10:33:04.339Z,10.77
2023-02-11T10:35:34.243Z,11.04
2023-02-11T10:38:02.381Z,11.07
2023-02-11T10:40:32.861Z,11.02
2023-02-11T10:43:06.997Z,10.65
2023-02-11T10:45:39.813Z,11.14
2023-02-11T10:48:43.165Z,10.99
2023-02-11T10:51:22.119Z,11.37
2023-02-11T10:53:59.941Z,11.03
2023-02-11T10:56:31.680Z,11.79
2023-02-11T10:59:05.880Z,11.36
2023-02-11T11:01:48.002Z,11.03
2023-02-11T11:04:45.393Z,11.13
2023-02-11T11:07:21.301Z,10.84
2023-02-11T11:09:54.298Z,11.13
2023-02-11T11:12:49.383Z,11.45
2023-02-11T11:15:21.844Z,11.70
2023-02-11T11:17:51.218Z,11.56
2023-02-11T11:20:28.536Z,11.98
2023-02-11T11:23:16.738Z,12.28
2023-02-11T11:25:47.504Z,12.00
2023-02-11T11:28:25.283Z,11.63
2023-02-11T11:30:56.622Z,11.63
2023-02-11T11:33:30.170Z,12.53
2023-02-11T11:36:06.035Z,12.37
2023-02-11T11:38:41.193Z,12.00
2023-02-11T11:41:23.478Z,11.87
2023-02-11T11:44:01.916Z,12.34
2023-02-11T11:46:35.464Z,12.52
2023-02-11T11:49:24.248Z,12.21
2023-02-11T11:52:09.551Z,12.32
2023-02-11T11:54:40.695Z,12.83
2023-02-11T11:57:19.027Z,12.62
2023-02-11T11:59:47.579Z,12.24
2023-02-11T12:02:47.092Z,12.68
2023-02-11T12:05:23.670Z,12.67
2023-02-11T12:08:04.972Z,12.24
2023-02-11T12:10:58.929Z,12.56
2023-02-11T12:13:50.204Z,12.72
2023-02-11T12:16:34.542Z,13.02
2023-02-11T12:19:44.571Z,13.20
2023-02-11T12:22:20.844Z,13.44
2023-02-11T12:25:13.773Z,13.07
2023-02-11T12:27:57.326Z,13.14
2023-02-11T12:30:50.792Z,13.13
2023-02-11T12:33:45.570Z,13.03
2023-02-11T12:36:35.421Z,12.99
2023-02-11T12:39:24.612Z,12.75
2023-02-11T12:42:31.660Z,12.98
2023-02-11T12:45:29.426Z,13.30
2023-02-11T12:48:22.732Z,13.15
2023-02-11T12:51:02.513Z,13.34
2023-02-11T12:53:51.979Z,13.07
2023-02-11T12:56:27.323Z,12.66
2023-02-11T12:59:01.754Z,13.04
2023-02-11T13:01:38.006Z,13.24
2023-02-11T13:04:14.702Z,13.38
2023-02-11T13:06:47.735Z,13.62
2023-02-11T13:09:25.244Z,13.61
2023-02-11T13:12:20.423Z,13.18
2023-02-11T13:14:53.318Z,13.41
2023-02-11T13:17:34.026Z,13.30
2023-02-11T13:20:15.340Z,13.84
2023-02-11T13:22:51.014Z,13.34
2023-02-11T13:25:32.771Z,13.08
2023-02-11T13:28:19.302Z,13.36
2023-02-11T13:30:52.197Z,13.38
2023-02-11T13:33:37.536Z,13.10
2023-02-11T13:36:19.138Z,13.10
2023-02-11T13:39:07.050Z,13.35
2023-02-11T13:41:41.850Z,12.92
2023-02-11T13:44:27.590Z,13.03
2023-02-11T13:47:01.363Z,12.98
2023-02-11T13:49:40.497Z,12.93
2023-02-11T13:52:25.938Z,13.16
2023-02-11T13:54:58.070Z,13.09
2023-02-11T13:57:35.548Z,13.04
2023-02-11T14:00:47.100Z,12.89
2023-02-11T14:03:56.245Z,13.09
2023-02-11T14:06:45.807Z,13.26
2023-02-11T14:09:40.428Z,12.94
2023-02-11T14:12:38.596Z,13.06
2023-02-11T14:15:28.344Z,13.23
2023-02-11T14:17:56.369Z,13.25
2023-02-11T14:20:44.695Z,13.51
2023-02-11T14:23:28.460Z,13.55
2023-02-11T14:26:16.419Z,13.21
2023-02-11T14:28:46.880Z,13.53
2023-02-11T14:31:19.857Z,13.40
2023-02-11T14:34:21.065Z,13.33
2023-02-11T14:37:19.168Z,13.26
2023-02-11T14:40:10.274Z,12.79
2023-02-11T14:42:41.324Z,13.04
2023-02-11T14:45:17.328Z,13.04
2023-02-11T14:47:53.707Z,13.13
2023-02-11T14:50:28.021Z,13.50
2023-02-11T14:53:02.243Z,13.54
2023-02-11T14:55:37.134Z,12.76
2023-02-11T14:58:15.930Z,13.08
2023-02-11T15:00:57.814Z,12.85
2023-02-11T15:03:33.613Z,13.08
2023-02-11T15:06:06.445Z,13.04
2023-02-11T15:08:40.520Z,13.03
2023-02-11T15:11:14.992Z,12.84
2023-02-11T15:13:48.138Z,13.06
2023-02-11T15:16:20.746Z,12.75
2023-02-11T15:18:55.275Z,12.87
2023-02-11T15:21:30.040Z,12.99
2023-02-11T15:24:01.665Z,12.92
2023-02-11T15:26:34.711Z,12.57
2023-02-11T15:29:02.706Z,12.40
2023-02-11T15:31:34.628Z,12.44
2023-02-11T15:34:09.088Z,12.69
2023-02-11T15:36:38.761Z,12.34
2023-02-11T15:39:32.306Z,12.34
2023-02-11T15:42:25.807Z,12.38
2023-02-11T15:45:12.932Z,12.35
2023-02-11T15:47:52.009Z,12.11
2023-02-11T15:50:25.255Z,12.35
2023-02-11T15:52:56.205Z,12.23
2023-02-11T15:55:27.473Z,12.20
2023-02-11T15:57:59.625Z,12.36
2023-02-11T16:00:37.840Z,12.53
2023-02-11T16:03:06.168Z,12.23
2023-02-11T16:05:37.379Z,11.96
2023-02-11T16:08:24.440Z,11.96
2023-02-11T16:10:58.857Z,12.30
2023-02-11T16:13:30.627Z,11.94
2023-02-11T16:16:04.746Z,12.00
2023-02-11T16:18:40.191Z,12.20
2023-02-11T16:21:17.802Z,12.19
2023-02-11T16:23:54.596Z,11.94
2023-02-11T16:26:30.299Z,12.10
2023-02-11T16:29:15.657Z,12.11
2023-02-11T16:31:46.853Z,12.18
2023-02-11T16:34:17.587Z,12.20
2023-02-11T16:36:46.787Z,11.85
2023-02-11T16:39:15.065Z,11.99
2023-02-11T16:41:43.081Z,11.78
2023-02-11T16:44:12.501Z,11.96
2023-02-11T16:46:43.964Z,11.83
2023-02-11T16:49:18.613Z,12.20
2023-02-11T16:51:50.728Z,12.26
2023-02-11T16:54:20.399Z,12.02
2023-02-11T16:56:48.341Z,11.73
2023-02-11T16:59:17.744Z,12.06
2023-02-11T17:01:47.621Z,12.19
2023-02-11T17:04:21.267Z,12.00
2023-02-11T17:06:49.368Z,12.43
2023-02-11T17:09:21.141Z,12.06
2023-02-11T17:11:49.940Z,11.93
2023-02-11T17:14:20.627Z,12.25
2023-02-11T17:16:49.686Z,12.06
2023-02-11T17:19:21.085Z,11.60
2023-02-11T17:22:01.517Z,11.79
2023-02-11T17:24:29.508Z,11.71
2023-02-11T17:26:57.436Z,11.45
2023-02-11T17:29:31.401Z,11.79
2023-02-11T17:31:59.409Z,11.95
2023-02-11T17:34:29.250Z,12.00
2023-02-11T17:36:58.003Z,12.09
2023-02-11T17:39:25.957Z,12.18
2023-02-11T17:41:53.914Z,12.06
2023-02-11T17:44:22.034Z,12.03
2023-02-11T17:46:53.951Z,12.03
2023-02-11T17:49:21.960Z,12.00
2023-02-11T17:51:49.937Z,11.87
2023-02-11T17:54:20.540Z,11.66
2023-02-11T17:56:55.733Z,12.08
2023-02-11T17:59:25.911Z,11.92
2023-02-11T18:01:55.274Z,11.97
2023-02-11T18:04:23.847Z,12.13
2023-02-11T18:06:53.516Z,11.99
2023-02-11T18:09:21.731Z,11.89
2023-02-11T18:11:52.541Z,12.27
2023-02-11T18:14:21.519Z,12.35
2023-02-11T18:16:53.871Z,11.55
2023-02-11T18:19:23.277Z,11.77
2023-02-11T18:21:52.408Z,11.71
2023-02-11T18:24:20.592Z,11.63
2023-02-11T18:26:48.837Z,11.76
2023-02-11T18:29:16.842Z,11.82
2023-02-11T18:31:45.002Z,11.77
2023-02-11T18:34:13.963Z,11.56
2023-02-11T18:36:43.650Z,11.73
2023-02-11T18:39:11.620Z,11.43
2023-02-11T18:41:42.303Z,11.53
2023-02-11T18:44:10.629Z,11.24
2023-02-11T18:46:38.754Z,11.33
2023-02-11T18:49:06.913Z,11.47
2023-02-11T18:51:35.077Z,10.75
2023-02-11T18:54:04.817Z,11.20
2023-02-11T18:56:32.976Z,11.01
2023-02-11T18:59:01.745Z,11.17
2023-02-11T19:01:33.689Z,10.99
2023-02-11T19:04:05.024Z,10.80
2023-02-11T19:06:55.802Z,11.32
2023-02-11T19:09:25.176Z,11.17
2023-02-11T19:11:55.393Z,11.36
2023-02-11T19:14:25.259Z,10.89
2023-02-11T19:16:55.300Z,11.26
2023-02-11T19:19:26.863Z,11.04
2023-02-11T19:21:56.505Z,10.62
2023-02-11T19:24:26.970Z,11.28
2023-02-11T19:26:59.039Z,11.43
2023-02-11T19:29:28.423Z,11.30
2023-02-11T19:31:56.869Z,10.63
2023-02-11T19:34:24.919Z,10.61
2023-02-11T19:36:54.293Z,11.27
2023-02-11T19:39:24.098Z,11.07
2023-02-11T19:41:53.539Z,11.53
2023-02-11T19:44:22.843Z,10.80
2023-02-11T19:46:53.220Z,10.50
2023-02-11T19:49:25.812Z,10.98
2023-02-11T19:51:55.717Z,11.41
2023-02-11T19:54:24.119Z,10.84
2023-02-11T19:56:54.210Z,10.79
2023-02-11T19:59:22.604Z,10.74
2023-02-11T20:01:50.680Z,11.23
2023-02-11T20:04:19.783Z,11.55
2023-02-11T20:06:49.413Z,11.65
2023-02-11T20:09:34.075Z,11.32
2023-02-11T20:12:03.432Z,11.39
2023-02-11T20:14:31.365Z,11.61
2023-02-11T20:16:59.461Z,10.89
2023-02-11T20:19:27.986Z,11.40
2023-02-11T20:21:56.269Z,11.57
2023-02-11T20:24:29.359Z,11.74
2023-02-11T20:26:57.283Z,11.36
2023-02-11T20:29:31.065Z,11.35
2023-02-11T20:31:59.171Z,11.68
2023-02-11T20:34:27.233Z,11.22
2023-02-11T20:36:56.036Z,11.57
2023-02-11T20:39:26.814Z,11.20
2023-02-11T20:41:56.565Z,11.14
2023-02-11T20:44:24.871Z,10.71
2023-02-11T20:46:54.920Z,11.12
2023-02-11T20:49:26.899Z,11.03
2023-02-11T20:51:55.789Z,11.37
2023-02-11T20:54:25.673Z,11.00
2023-02-11T20:56:55.387Z,11.31
2023-02-11T20:59:23.954Z,11.29
2023-02-11T21:01:57.472Z,11.57
2023-02-11T21:04:27.835Z,10.68
2023-02-11T21:06:58.354Z,11.21
2023-02-11T21:09:29.871Z,11.00
2023-02-11T21:11:58.096Z,11.43
2023-02-11T21:14:27.478Z,11.03
2023-02-11T21:16:57.566Z,11.10
2023-02-11T21:19:26.040Z,10.37
2023-02-11T21:21:55.175Z,10.16
2023-02-11T21:24:23.760Z,10.60
2023-02-11T21:26:51.788Z,9.99
2023-02-11T21:29:19.753Z,10.03
2023-02-11T21:31:47.775Z,9.92
2023-02-11T21:34:17.165Z,9.77
2023-02-11T21:36:45.825Z,10.35
2023-02-11T21:39:14.821Z,10.31
2023-02-11T21:41:42.720Z,10.80
2023-02-11T21:44:10.743Z,10.70
2023-02-11T21:46:38.870Z,10.70
2023-02-11T21:49:09.414Z,11.03
2023-02-11T21:51:38.797Z,10.57
2023-02-11T21:54:06.884Z,10.79
2023-02-11T21:56:35.472Z,11.19
2023-02-11T21:59:03.763Z,11.23
2023-02-11T22:01:36.907Z,11.31
2023-02-11T22:04:05.519Z,10.99
2023-02-11T22:06:42.403Z,10.52
2023-02-11T22:09:11.687Z,10.55
2023-02-11T22:11:39.912Z,10.34
2023-02-11T22:14:08.543Z,10.63
2023-02-11T22:16:37.786Z,10.86
2023-02-11T22:19:07.355Z,11.31
2023-02-11T22:21:36.628Z,11.28
2023-02-11T22:24:06.985Z,10.65
2023-02-11T22:26:34.932Z,10.35
2023-02-11T22:29:02.888Z,10.32
2023-02-11T22:31:33.961Z,10.77
2023-02-11T22:34:04.038Z,11.17
2023-02-11T22:36:38.401Z,10.22
2023-02-11T22:39:11.868Z,10.42
2023-02-11T22:41:41.585Z,10.20
2023-02-11T22:44:10.313Z,10.05
2023-02-11T22:46:41.673Z,10.37
2023-02-11T22:49:09.664Z,10.74
2023-02-11T22:51:37.607Z,10.11
2023-02-11T22:54:11.264Z,10.19
2023-02-11T22:56:40.170Z,10.50
2023-02-11T22:59:12.090Z,10.51
2023-02-11T23:01:43.636Z,10.03
2023-02-11T23:04:15.631Z,10.66
2023-02-11T23:06:44.049Z,10.06
2023-02-11T23:09:13.491Z,10.01
2023-02-11T23:11:41.965Z,9.81
2023-02-11T23:14:12.113Z,9.71
2023-02-11T23:16:40.253Z,9.69
2023-02-11T23:19:10.277Z,10.00
2023-02-11T23:21:43.148Z,9.59
2023-02-11T23:24:15.458Z,9.73
2023-02-11T23:26:47.251Z,9.84
2023-02-11T23:29:15.203Z,9.91
2023-02-11T23:31:46.117Z,9.74
2023-02-11T23:34:17.151Z,10.00
2023-02-11T23:36:45.433Z,9.82
2023-02-11T23:39:17.128Z,9.82
2023-02-11T23:41:45.804Z,9.74
2023-02-11T23:44:14.078Z,9.72
2023-02-11T23:46:42.075Z,9.57
2023-02-11T23:49:10.364Z,9.56
2023-02-11T23:51:40.210Z,9.76
2023-02-11T23:54:08.235Z,9.54
2023-02-11T23:56:37.919Z,9.53
2023-02-11T23:59:06.541Z,9.78
